North Las Vegas, Nevada
Current Conditions -  °F | °C
As of 5:58 AM on Friday 19 Dec 2014 (Local Time) from KLSV Reporting Station
Clear Clear  
Wind Chill: 33°   Ceiling: Unl
Heat Index: 37°   Visibility: 10mi
Dew Point: 35°   Wind: 5mph
Humidity: 93%   Direction: 10°N
Pressure: 30.25"   Gusts: NA
Location:  36.2°N, 115.11°W
Report Text: KLSV 191358Z AUTO 01004KT 10SM CLR 03/02 A3025 RMK AO2 SLP247 T00280017 $
Loading
Personal Weather Stations






























Interactive Weather Map New forecast layout! Learn more

10-Day Weather Forecast

Advertisements
Track Severe Weather on mobile